Time;durP1;ratioP1;P1;durP2;ratioP2;P2;SDS_P1;SDS_P2;PMS_P1;PMS_P2;Temp;Humidity;BMP_temperature;BMP_pressure;BME280_temperature;BME280_humidity;BME280_pressure;Samples;Min_cycle;Max_cycle;Signal;HPM_P1;HPM_P2
2022/05/12 00:00:35;;;;;;;;;;;;;;;22.19;41.23;95622.56;10355575;28;1670;-57
2022/05/12 00:05:35;;;;;;;;;;;;;;;22.18;41.26;95621.78;10351727;28;1804;-61
2022/05/12 00:10:35;;;;;;;;;;;;;;;22.18;41.13;95624.41;10344471;28;1969;-59
2022/05/12 00:15:36;;;;;;;;;;;;;;;22.18;41.22;95620.97;10340981;28;1815;-57
2022/05/12 00:20:37;;;;;;;;;;;;;;;22.17;41.23;95617.56;10325761;28;1970;-60
2022/05/12 00:25:38;;;;;;;;;;;;;;;22.18;41.47;95621.78;10332171;28;1864;-55
2022/05/12 00:30:38;;;;;;;;;;;;;;;22.18;41.47;95621.78;10358491;28;1985;-59
2022/05/12 00:35:39;;;;;;;;;;;;;;;22.18;41.16;95611.22;10342322;28;1888;-61
2022/05/12 00:40:40;;;;;;;;;;;;;;;22.18;41.23;95626.25;10351796;28;1986;-62
2022/05/12 00:45:41;;;;;;;;;;;;;;;22.19;41.31;95622.56;10343038;28;1934;-63
2022/05/12 00:50:41;;;;;;;;;;;;;;;22.19;41.48;95623.34;10349424;28;2013;-60
2022/05/12 00:55:42;;;;;;;;;;;;;;;22.18;41.35;95627.06;10350315;28;1620;-56
2022/05/12 01:00:43;;;;;;;;;;;;;;;22.18;41.19;95620.97;10357163;28;2297;-56
2022/05/12 01:05:43;;;;;;;;;;;;;;;22.19;41.14;95623.34;10337623;28;2000;-58
2022/05/12 01:10:45;;;;;;;;;;;;;;;22.18;41.02;95621.78;10346719;28;1939;-60
2022/05/12 01:15:48;;;;;;;;;;;;;;;22.19;41.25;95622.56;10345677;28;1913;-59
2022/05/12 01:20:55;;;;;;;;;;;;;;;22.18;41.14;95624.41;10327832;28;2119;-59
2022/05/12 01:26:02;;;;;;;;;;;;;;;22.19;41.35;95625.19;10343977;28;1954;-57
2022/05/12 01:31:03;;;;;;;;;;;;;;;22.19;41.23;95625.19;10336495;28;2406;-56
2022/05/12 01:36:04;;;;;;;;;;;;;;;22.19;41.34;95625.19;10340792;28;1697;-58
2022/05/12 01:41:05;;;;;;;;;;;;;;;22.19;41.38;95627.84;10347698;28;1943;-52
2022/05/12 01:46:05;;;;;;;;;;;;;;;22.19;41.12;95633.13;10340252;28;1919;-59
2022/05/12 01:51:05;;;;;;;;;;;;;;;22.18;41.33;95634.97;10336306;28;1938;-58
2022/05/12 01:56:06;;;;;;;;;;;;;;;22.19;41.16;95633.13;10320918;28;2016;-57
2022/05/12 02:01:07;;;;;;;;;;;;;;;22.18;41.08;95631.53;10353697;28;1995;-60
2022/05/12 02:06:08;;;;;;;;;;;;;;;22.18;41.14;95632.34;10348058;28;1979;-57
2022/05/12 02:11:09;;;;;;;;;;;;;;;22.18;41.40;95629.69;10331163;28;2024;-57
2022/05/12 02:16:09;;;;;;;;;;;;;;;22.18;41.00;95629.69;10337625;28;1844;-58
2022/05/12 02:21:09;;;;;;;;;;;;;;;22.18;41.34;95631.53;10331764;28;2015;-58
2022/05/12 02:26:10;;;;;;;;;;;;;;;22.18;41.00;95632.34;10354316;28;2074;-56
2022/05/12 02:31:10;;;;;;;;;;;;;;;22.18;41.23;95632.34;10353661;28;1989;-56
2022/05/12 02:36:10;;;;;;;;;;;;;;;22.18;41.06;95640.25;10349504;28;1932;-57
2022/05/12 02:41:11;;;;;;;;;;;;;;;22.20;41.14;95642.59;10350999;28;1852;-57
2022/05/12 02:46:11;;;;;;;;;;;;;;;22.18;41.34;95642.09;10335556;28;1965;-57
2022/05/12 02:51:13;;;;;;;;;;;;;;;22.19;40.83;95641.84;10334817;28;1972;-58
2022/05/12 02:56:13;;;;;;;;;;;;;;;22.18;40.95;95648.16;10344919;28;1883;-58
2022/05/12 03:01:14;;;;;;;;;;;;;;;22.18;41.03;95653.44;10334544;28;1921;-55
2022/05/12 03:06:15;;;;;;;;;;;;;;;22.19;40.98;95657.69;10329294;28;2052;-54
2022/05/12 03:11:15;;;;;;;;;;;;;;;22.19;40.93;95654.25;10330272;28;1974;-54
2022/05/12 03:16:19;;;;;;;;;;;;;;;22.17;40.91;95651.91;10351485;28;1943;-60
2022/05/12 03:21:23;;;;;;;;;;;;;;;22.19;40.93;95667.44;10348971;28;1888;-60
2022/05/12 03:26:23;;;;;;;;;;;;;;;22.19;41.21;95680.66;10349122;28;1958;-59
2022/05/12 03:31:23;;;;;;;;;;;;;;;22.19;41.06;95688.56;10326607;28;2102;-55
2022/05/12 03:36:25;;;;;;;;;;;;;;;22.19;41.07;95689.34;10348287;28;1687;-58
2022/05/12 03:41:25;;;;;;;;;;;;;;;22.19;41.06;95697.28;10351972;28;1884;-56
2022/05/12 03:46:25;;;;;;;;;;;;;;;22.19;41.05;95701.78;10358789;28;1880;-55
2022/05/12 03:51:26;;;;;;;;;;;;;;;22.20;41.14;95708.59;10341551;28;1992;-59
2022/05/12 03:56:27;;;;;;;;;;;;;;;22.19;41.04;95707.06;10352368;28;1909;-60
2022/05/12 04:01:28;;;;;;;;;;;;;;;22.19;41.02;95718.41;10357264;28;2137;-55
2022/05/12 04:06:28;;;;;;;;;;;;;;;22.20;41.00;95732.38;10347384;28;1921;-57
2022/05/12 04:11:29;;;;;;;;;;;;;;;22.20;41.06;95730.53;10357470;28;2255;-56
2022/05/12 04:16:30;;;;;;;;;;;;;;;22.21;41.00;95733.97;10363350;28;1905;-56
2022/05/12 04:21:31;;;;;;;;;;;;;;;22.20;41.30;95740.28;10353760;28;2049;-60
2022/05/12 04:26:32;;;;;;;;;;;;;;;22.19;41.21;95752.72;10358982;28;1950;-59
2022/05/12 04:31:32;;;;;;;;;;;;;;;22.20;41.24;95754.28;10371909;28;1994;-56
2022/05/12 04:36:33;;;;;;;;;;;;;;;22.22;41.17;95759.28;10354189;28;2012;-57
2022/05/12 04:41:33;;;;;;;;;;;;;;;22.21;41.51;95758.50;10355982;28;1888;-58
2022/05/12 04:46:34;;;;;;;;;;;;;;;22.22;41.48;95767.19;10373699;28;1906;-59
2022/05/12 04:51:34;;;;;;;;;;;;;;;22.23;41.71;95771.41;10367729;28;1968;-59
2022/05/12 04:56:38;;;;;;;;;;;;;;;22.25;41.38;95780.63;10345670;28;1984;-57
2022/05/12 05:01:40;;;;;;;;;;;;;;;22.24;41.90;95784.34;10361595;28;1947;-56
2022/05/12 05:06:41;;;;;;;;;;;;;;;22.25;41.97;95791.19;10384388;28;1914;-56
2022/05/12 05:11:41;;;;;;;;;;;;;;;22.26;41.69;95803.31;10379034;28;1918;-60
2022/05/12 05:16:41;;;;;;;;;;;;;;;22.26;41.90;95808.59;10357516;28;1848;-59
2022/05/12 05:21:42;;;;;;;;;;;;;;;22.26;41.79;95813.88;10373013;28;1777;-57
2022/05/12 05:26:43;;;;;;;;;;;;;;;22.27;42.00;95835.81;10352566;28;2007;-61
2022/05/12 05:31:49;;;;;;;;;;;;;;;22.28;41.89;95847.91;10342021;28;2274;-58
2022/05/12 05:36:50;;;;;;;;;;;;;;;22.26;41.88;95848.22;10376017;28;1983;-55
2022/05/12 05:41:51;;;;;;;;;;;;;;;22.27;41.58;95852.44;10349237;28;1832;-59
2022/05/12 05:46:51;;;;;;;;;;;;;;;22.27;41.73;95865.66;10332338;28;1797;-59
2022/05/12 05:57:12;;;;;;;;;;;;;;;22.26;42.51;95877.25;10348331;28;1857;-58
2022/05/12 06:02:13;;;;;;;;;;;;;;;22.27;42.43;95886.78;10340009;28;1963;-56
2022/05/12 06:07:14;;;;;;;;;;;;;;;22.30;42.57;95891.47;10339955;28;2068;-56
2022/05/12 06:12:14;;;;;;;;;;;;;;;22.32;42.61;95889.34;10331915;28;1977;-59
2022/05/12 06:17:16;;;;;;;;;;;;;;;22.33;42.53;95893.56;10325558;28;1808;-60
2022/05/12 06:22:18;;;;;;;;;;;;;;;22.34;42.81;95904.91;10334002;28;1844;-59
2022/05/12 06:27:19;;;;;;;;;;;;;;;22.34;42.47;95903.03;10331033;28;1902;-60
2022/05/12 06:32:19;;;;;;;;;;;;;;;22.34;42.03;95905.69;10327126;28;1895;-59
2022/05/12 06:37:20;;;;;;;;;;;;;;;22.34;42.42;95910.97;10339788;28;1849;-57
2022/05/12 06:42:20;;;;;;;;;;;;;;;22.33;42.70;95914.69;10340159;28;1812;-59
2022/05/12 06:47:21;;;;;;;;;;;;;;;22.33;42.04;95914.69;10339192;28;1871;-58
2022/05/12 06:52:21;;;;;;;;;;;;;;;22.36;42.50;95921.28;10341805;28;1981;-61
2022/05/12 06:57:27;;;;;;;;;;;;;;;22.36;42.02;95902.78;10358336;28;1931;-60
2022/05/12 07:02:27;;;;;;;;;;;;;;;22.35;42.04;95923.13;10344086;28;2233;-57
2022/05/12 07:07:28;;;;;;;;;;;;;;;22.38;41.96;95927.06;10348118;28;1853;-59
2022/05/12 07:12:28;;;;;;;;;;;;;;;22.35;42.04;95922.31;10336213;28;1987;-55
2022/05/12 07:17:28;;;;;;;;;;;;;;;22.35;41.98;95944.25;10341251;28;1946;-62
2022/05/12 07:27:49;;;;;;;;;;;;;;;22.36;41.77;95929.97;10347637;28;2144;-55
2022/05/12 07:32:50;;;;;;;;;;;;;;;22.34;41.83;95940.03;10353595;28;1907;-58
2022/05/12 07:37:51;;;;;;;;;;;;;;;22.34;41.70;95949.81;10352653;28;2095;-58
2022/05/12 07:42:51;;;;;;;;;;;;;;;22.32;41.57;95944.78;10374134;28;1959;-60
2022/05/12 07:47:52;;;;;;;;;;;;;;;22.34;41.50;95944.53;10365525;28;2232;-59
2022/05/12 07:52:52;;;;;;;;;;;;;;;22.34;41.97;95942.66;10355851;28;2156;-55
2022/05/12 07:57:52;;;;;;;;;;;;;;;22.34;41.61;95950.59;10358058;28;1820;-57
2022/05/12 08:02:53;;;;;;;;;;;;;;;22.36;41.60;95950.31;10376978;28;1820;-58
2022/05/12 08:07:54;;;;;;;;;;;;;;;22.35;41.57;95959.31;10350203;28;1833;-60
2022/05/12 08:12:56;;;;;;;;;;;;;;;22.34;41.55;95963.78;10350749;28;1895;-57
2022/05/12 08:17:59;;;;;;;;;;;;;;;22.38;41.48;95956.88;10352263;28;2253;-60
2022/05/12 08:23:00;;;;;;;;;;;;;;;22.38;41.71;95962.16;10354950;28;1839;-56
2022/05/12 08:28:00;;;;;;;;;;;;;;;22.36;41.68;95953.72;10363843;28;2085;-59
2022/05/12 08:33:01;;;;;;;;;;;;;;;22.39;41.87;95955.81;10366631;28;1921;-57
2022/05/12 08:38:02;;;;;;;;;;;;;;;22.38;41.68;95962.16;10344513;28;1863;-55
2022/05/12 08:43:08;;;;;;;;;;;;;;;22.38;41.68;95964.81;10359380;28;1996;-58
2022/05/12 08:48:09;;;;;;;;;;;;;;;22.39;41.80;95965.59;10333847;28;1855;-57
2022/05/12 08:53:11;;;;;;;;;;;;;;;22.35;41.67;95968.03;10335802;28;1974;-59
2022/05/12 08:58:33;;;;;;;;;;;;;;;22.39;41.97;95969.03;10366411;28;1859;-56
2022/05/12 09:03:52;;;;;;;;;;;;;;;22.40;41.81;95972.47;10364065;28;1839;-58
2022/05/12 09:08:55;;;;;;;;;;;;;;;22.40;41.95;95967.94;10344947;28;1784;-60
2022/05/12 09:13:56;;;;;;;;;;;;;;;22.41;42.36;95964.25;10341453;28;1836;-58
2022/05/12 09:18:57;;;;;;;;;;;;;;;22.44;41.71;95960.28;10339265;28;1812;-59
2022/05/12 09:23:57;;;;;;;;;;;;;;;22.47;41.88;95973.69;10331963;28;1819;-56
2022/05/12 09:29:08;;;;;;;;;;;;;;;22.44;41.82;95968.19;10327784;28;2003;-57
2022/05/12 09:34:21;;;;;;;;;;;;;;;22.49;41.96;95963.66;10351853;28;1749;-59
2022/05/12 09:39:36;;;;;;;;;;;;;;;22.46;41.52;95977.41;10345719;28;1824;-61
2022/05/12 09:44:37;;;;;;;;;;;;;;;22.46;41.53;95966.84;10335014;28;1740;-62
2022/05/12 09:49:38;;;;;;;;;;;;;;;22.51;41.75;95973.91;10333626;28;1915;-62
2022/05/12 09:54:41;;;;;;;;;;;;;;;22.50;41.91;95982.94;10330957;28;1843;-57
2022/05/12 09:59:41;;;;;;;;;;;;;;;22.51;41.86;95969.44;10349027;28;1850;-59
2022/05/12 10:10:11;;;;;;;;;;;;;;;22.53;42.90;95961.22;10334260;28;1913;-57
2022/05/12 10:15:16;;;;;;;;;;;;;;;22.60;43.36;95961.72;10353249;28;1753;-58
2022/05/12 10:20:19;;;;;;;;;;;;;;;22.58;43.58;95964.66;10345716;28;2291;-59
2022/05/12 10:25:19;;;;;;;;;;;;;;;22.63;44.05;95966.41;10343469;28;1835;-57
2022/05/12 10:30:31;;;;;;;;;;;;;;;22.63;43.83;95963.78;10365938;28;1910;-61
2022/05/12 10:35:33;;;;;;;;;;;;;;;22.60;42.88;95954.59;10351320;28;1884;-58
2022/05/12 10:40:43;;;;;;;;;;;;;;;22.61;43.71;95958.78;10334280;28;1886;-61
2022/05/12 10:46:02;;;;;;;;;;;;;;;22.61;42.32;95953.50;10362756;28;1832;-60
2022/05/12 10:51:16;;;;;;;;;;;;;;;22.62;43.24;95965.66;10367639;28;1902;-63
2022/05/12 10:56:19;;;;;;;;;;;;;;;22.60;43.18;95961.72;10337189;28;1862;-53
2022/05/12 11:01:20;;;;;;;;;;;;;;;22.63;42.59;95958.50;10353324;28;1864;-61
2022/05/12 11:06:22;;;;;;;;;;;;;;;22.64;42.50;95958.25;10355123;28;1864;-60
2022/05/12 11:11:27;;;;;;;;;;;;;;;22.64;42.58;95958.25;10357201;28;1910;-60
2022/05/12 11:16:33;;;;;;;;;;;;;;;22.64;42.80;95952.94;10335310;28;1981;-61
2022/05/12 11:21:39;;;;;;;;;;;;;;;22.63;42.57;95946.06;10331261;28;2262;-61
2022/05/12 11:26:55;;;;;;;;;;;;;;;22.65;42.96;95943.94;10351763;28;1913;-58
2022/05/12 11:31:59;;;;;;;;;;;;;;;22.67;42.68;95933.88;10336256;28;1985;-58
2022/05/12 11:37:20;;;;;;;;;;;;;;;22.72;42.63;95927.75;10337084;28;1782;-59
2022/05/12 11:44:23;;;;;;;;;;;;;;;22.71;41.91;95928.03;10352851;28;1866;-62
2022/05/12 11:47:50;;;;;;;;;;;;;;;22.64;42.46;95923.88;10358316;28;1909;-57
2022/05/12 11:53:03;;;;;;;;;;;;;;;22.69;42.54;95924.91;10358216;28;1960;-61
2022/05/12 11:58:06;;;;;;;;;;;;;;;22.72;42.31;95919.03;10360186;28;1899;-60
2022/05/12 12:03:27;;;;;;;;;;;;;;;22.71;42.63;95920.13;10340056;28;1818;-57
2022/05/12 12:08:30;;;;;;;;;;;;;;;22.68;42.13;95916.19;10311893;28;2067;-57
2022/05/12 12:13:31;;;;;;;;;;;;;;;22.73;41.82;95891.56;10355967;28;1910;-57
2022/05/12 12:18:32;;;;;;;;;;;;;;;22.74;42.55;95901.03;10356125;28;2271;-64
2022/05/12 12:23:35;;;;;;;;;;;;;;;22.73;41.94;95894.94;10348393;28;1911;-58
2022/05/12 12:28:53;;;;;;;;;;;;;;;22.73;42.52;95894.19;10341404;28;1841;-56
2022/05/12 12:34:12;;;;;;;;;;;;;;;22.72;42.31;95885.47;10328094;28;1989;-59
2022/05/12 12:39:13;;;;;;;;;;;;;;;22.73;42.39;95873.81;10349448;28;1797;-63
2022/05/12 12:44:14;;;;;;;;;;;;;;;22.77;42.34;95869.56;10346171;28;1840;-59
2022/05/12 12:49:22;;;;;;;;;;;;;;;22.76;41.66;95867.97;10333448;28;1910;-60
2022/05/12 12:59:48;;;;;;;;;;;;;;;22.77;42.49;95856.34;10351893;28;1741;-54
2022/05/12 13:04:51;;;;;;;;;;;;;;;22.74;41.39;95856.91;10321338;28;1777;-56
2022/05/12 13:09:52;;;;;;;;;;;;;;;22.76;41.46;95851.31;10351729;28;1910;-63
2022/05/12 13:14:53;;;;;;;;;;;;;;;22.79;42.27;95861.34;10338774;28;1784;-61
2022/05/12 13:19:56;;;;;;;;;;;;;;;22.76;41.38;95851.31;10352911;28;2469;-59
2022/05/12 13:24:56;;;;;;;;;;;;;;;22.78;42.16;95825.41;10327768;28;1870;-56
2022/05/12 13:29:57;;;;;;;;;;;;;;;22.81;42.20;95838.84;10341984;28;2009;-57
2022/05/12 13:35:02;;;;;;;;;;;;;;;22.80;42.12;95839.13;10346338;28;1757;-59
2022/05/12 13:40:06;;;;;;;;;;;;;;;22.81;42.29;95833.56;10332588;28;1741;-56
2022/05/12 13:45:08;;;;;;;;;;;;;;;22.82;42.01;95815.81;10338058;28;1781;-54
2022/05/12 13:50:09;;;;;;;;;;;;;;;22.82;42.20;95821.91;10335225;28;1999;-59
2022/05/12 13:55:15;;;;;;;;;;;;;;;22.80;41.55;95823.25;10338421;28;1788;-56
2022/05/12 14:00:18;;;;;;;;;;;;;;;22.81;42.02;95814.28;10342877;28;1745;-58
2022/05/12 14:05:18;;;;;;;;;;;;;;;22.85;42.11;95812.63;10344583;28;1784;-57
2022/05/12 14:10:27;;;;;;;;;;;;;;;22.81;42.12;95807.13;10357591;28;1958;-63
2022/05/12 14:20:47;;;;;;;;;;;;;;;22.85;42.02;95794.13;10341109;28;2365;-61
2022/05/12 14:25:48;;;;;;;;;;;;;;;22.89;42.09;95795.91;10347717;28;1907;-55
2022/05/12 14:30:48;;;;;;;;;;;;;;;22.86;41.72;95777.97;10348774;28;1977;-57
2022/05/12 14:35:48;;;;;;;;;;;;;;;22.90;42.04;95772.88;10334857;28;1793;-56
2022/05/12 14:40:50;;;;;;;;;;;;;;;22.89;41.75;95771.34;10357648;28;1793;-57
2022/05/12 14:45:50;;;;;;;;;;;;;;;22.91;41.98;95758.63;10351305;28;1852;-58
2022/05/12 14:50:51;;;;;;;;;;;;;;;22.90;42.04;95767.59;10343568;28;1987;-58
2022/05/12 14:55:53;;;;;;;;;;;;;;;22.92;41.84;95752.25;10348736;28;1855;-56
2022/05/12 15:00:53;;;;;;;;;;;;;;;22.90;41.85;95744.59;10343320;28;2292;-57
2022/05/12 15:05:54;;;;;;;;;;;;;;;22.92;41.81;95750.38;10348344;28;1804;-58
2022/05/12 15:10:54;;;;;;;;;;;;;;;22.91;42.21;95745.41;10344104;28;1914;-61
2022/05/12 15:15:56;;;;;;;;;;;;;;;22.92;42.33;95744.31;10359145;28;1822;-59
2022/05/12 15:20:56;;;;;;;;;;;;;;;22.94;42.20;95737.66;10347733;28;1872;-57
2022/05/12 15:25:57;;;;;;;;;;;;;;;22.92;42.11;95729.25;10336276;28;1790;-61
2022/05/12 15:30:57;;;;;;;;;;;;;;;22.92;42.19;95729.25;10353112;28;1903;-58
2022/05/12 15:35:59;;;;;;;;;;;;;;;22.92;42.23;95720.53;10333537;28;1939;-58
2022/05/12 15:40:59;;;;;;;;;;;;;;;22.93;42.19;95709.69;10339969;28;2152;-60
2022/05/12 15:45:59;;;;;;;;;;;;;;;22.93;42.27;95704.41;10361943;28;1804;-61
2022/05/12 15:50:59;;;;;;;;;;;;;;;22.93;42.49;95700.97;10340816;28;1895;-62
2022/05/12 15:56:00;;;;;;;;;;;;;;;22.93;42.30;95706.25;10357295;28;1963;-63
2022/05/12 16:01:00;;;;;;;;;;;;;;;22.92;42.25;95702.81;10353369;28;1761;-59
2022/05/12 16:06:00;;;;;;;;;;;;;;;22.92;42.48;95702.81;10341888;28;1843;-62
2022/05/12 16:11:01;;;;;;;;;;;;;;;22.93;42.22;95696.47;10336544;28;1910;-62
2022/05/12 16:16:01;;;;;;;;;;;;;;;22.93;42.30;95687.75;10359605;28;1816;-62
2022/05/12 16:21:02;;;;;;;;;;;;;;;22.93;42.39;95688.53;10359024;28;1851;-57
2022/05/12 16:26:04;;;;;;;;;;;;;;;22.92;42.33;95683.50;10354630;28;1833;-60
2022/05/12 16:31:04;;;;;;;;;;;;;;;22.93;42.60;95685.88;10326467;28;1910;-61
2022/05/12 16:36:06;;;;;;;;;;;;;;;22.94;42.43;95686.66;10344748;28;1872;-59
2022/05/12 16:41:06;;;;;;;;;;;;;;;22.93;42.32;95682.44;10337650;28;1796;-58
2022/05/12 16:46:07;;;;;;;;;;;;;;;22.95;42.46;95682.94;10342841;28;1745;-58
2022/05/12 16:51:07;;;;;;;;;;;;;;;22.95;42.26;95685.59;10347906;28;1974;-59
2022/05/12 16:56:07;;;;;;;;;;;;;;;22.96;42.47;95689.78;10339844;28;1927;-63
2022/05/12 17:01:08;;;;;;;;;;;;;;;22.95;42.42;95677.66;10348713;28;1845;-58
2022/05/12 17:06:08;;;;;;;;;;;;;;;22.97;42.54;95686.09;10359181;28;1748;-60
2022/05/12 17:11:11;;;;;;;;;;;;;;;22.96;42.66;95681.84;10360321;28;1910;-59
2022/05/12 17:16:11;;;;;;;;;;;;;;;22.97;42.25;95688.72;10378376;28;1872;-56
2022/05/12 17:21:12;;;;;;;;;;;;;;;22.99;42.49;95687.38;10376068;28;1919;-56
2022/05/12 17:26:12;;;;;;;;;;;;;;;23.00;42.94;95693.44;10375286;28;1970;-60
2022/05/12 17:31:13;;;;;;;;;;;;;;;23.02;44.12;95696.59;10366599;28;2121;-59
2022/05/12 17:36:13;;;;;;;;;;;;;;;23.06;44.42;95702.88;10374073;28;1769;-57
2022/05/12 17:41:14;;;;;;;;;;;;;;;23.07;44.59;95720.28;10356478;28;1871;-55
2022/05/12 17:46:17;;;;;;;;;;;;;;;23.08;45.00;95722.63;10351689;28;1856;-61
2022/05/12 17:51:18;;;;;;;;;;;;;;;23.08;45.18;95721.88;10328433;28;1918;-60
2022/05/12 17:56:19;;;;;;;;;;;;;;;23.10;44.83;95727.66;10334937;28;1862;-59
2022/05/12 18:01:19;;;;;;;;;;;;;;;23.09;44.99;95724.22;10335535;28;1814;-54
2022/05/12 18:06:22;;;;;;;;;;;;;;;23.10;45.22;95727.66;10356844;28;1773;-59
2022/05/12 18:11:23;;;;;;;;;;;;;;;23.09;45.06;95736.63;10347822;28;1935;-61
2022/05/12 18:16:24;;;;;;;;;;;;;;;23.11;44.91;95742.44;10360478;28;1786;-60
2022/05/12 18:21:24;;;;;;;;;;;;;;;23.10;45.31;95746.91;10370109;28;1827;-61
2022/05/12 18:26:26;;;;;;;;;;;;;;;23.11;45.23;95750.34;10372315;28;1919;-58
2022/05/12 18:31:27;;;;;;;;;;;;;;;23.10;44.99;95754.84;10351922;28;1930;-57
2022/05/12 18:36:28;;;;;;;;;;;;;;;23.10;45.20;95759.38;10374734;28;1777;-54
2022/05/12 18:41:28;;;;;;;;;;;;;;;23.10;45.05;95754.09;10372072;28;1824;-60
2022/05/12 18:46:35;;;;;;;;;;;;;;;23.09;45.01;95760.44;10344716;28;1831;-58
2022/05/12 18:51:36;;;;;;;;;;;;;;;23.10;45.12;95772.59;10338462;28;2245;-58
2022/05/12 18:56:36;;;;;;;;;;;;;;;23.10;45.08;95785.81;10354340;28;1903;-57
2022/05/12 19:01:36;;;;;;;;;;;;;;;23.10;44.95;95791.09;10351397;28;1824;-58
2022/05/12 19:06:37;;;;;;;;;;;;;;;23.10;45.01;95796.41;10351209;28;1857;-62
2022/05/12 19:11:37;;;;;;;;;;;;;;;23.08;44.93;95809.88;10341260;28;2243;-58
2022/05/12 19:16:38;;;;;;;;;;;;;;;23.09;44.97;95814.09;10345753;28;1776;-62
2022/05/12 19:21:41;;;;;;;;;;;;;;;23.08;45.00;95819.69;10348338;28;1773;-60
2022/05/12 19:26:41;;;;;;;;;;;;;;;23.09;44.83;95839.75;10377715;28;1870;-61
2022/05/12 19:31:42;;;;;;;;;;;;;;;23.10;44.92;95855.31;10377866;28;1938;-59
2022/05/12 19:36:43;;;;;;;;;;;;;;;23.08;44.71;95872.56;10373560;28;1823;-59
2022/05/12 19:41:43;;;;;;;;;;;;;;;23.10;44.76;95915.38;10356702;28;1879;-57
2022/05/12 19:46:44;;;;;;;;;;;;;;;23.11;44.58;95940.75;10356880;28;1911;-59
2022/05/12 19:51:44;;;;;;;;;;;;;;;23.09;44.58;96001.06;10355808;28;1985;-57
2022/05/12 19:56:46;;;;;;;;;;;;;;;23.09;44.40;95988.63;10354879;28;1932;-60
2022/05/12 20:01:47;;;;;;;;;;;;;;;23.11;44.60;96035.94;10339934;28;1804;-60
2022/05/12 20:06:48;;;;;;;;;;;;;;;23.12;45.11;96063.97;10361158;28;1769;-58
2022/05/12 20:11:51;;;;;;;;;;;;;;;23.12;45.17;96070.00;10335577;28;1910;-59
2022/05/12 20:16:54;;;;;;;;;;;;;;;23.13;45.19;96029.28;10348479;28;1785;-60
2022/05/12 20:21:58;;;;;;;;;;;;;;;23.12;44.83;95974.81;10355546;28;1776;-62
2022/05/12 20:26:59;;;;;;;;;;;;;;;23.13;45.13;95912.16;10341721;28;1960;-61
2022/05/12 20:32:00;;;;;;;;;;;;;;;23.13;45.25;95880.41;10354542;28;1915;-59
2022/05/12 20:37:00;;;;;;;;;;;;;;;23.14;45.13;95868.78;10353939;28;1868;-57
2022/05/12 20:42:04;;;;;;;;;;;;;;;23.13;45.51;95889.16;10343710;28;1820;-60
2022/05/12 20:47:05;;;;;;;;;;;;;;;23.15;45.45;95915.28;10342694;28;1792;-62
2022/05/12 20:52:06;;;;;;;;;;;;;;;23.15;45.35;95928.50;10339814;28;1922;-58
2022/05/12 20:57:06;;;;;;;;;;;;;;;23.14;45.35;95914.50;10335311;28;1757;-58
2022/05/12 21:02:07;;;;;;;;;;;;;;;23.13;45.33;95907.66;10351816;28;1757;-59
2022/05/12 21:07:07;;;;;;;;;;;;;;;23.14;45.28;95914.50;10339168;28;1792;-59
2022/05/12 21:12:07;;;;;;;;;;;;;;;23.12;45.26;95916.66;10341032;28;1977;-59
2022/05/12 21:17:09;;;;;;;;;;;;;;;23.15;45.31;95939.09;10345182;28;2224;-60
2022/05/12 21:22:10;;;;;;;;;;;;;;;23.07;46.29;95958.25;10353993;28;1906;-59
2022/05/12 21:27:12;;;;;;;;;;;;;;;22.46;50.35;95976.63;10361604;28;1812;-55
2022/05/12 21:32:18;;;;;;;;;;;;;;;21.76;52.90;95999.13;10340126;28;1906;-59
2022/05/12 21:37:18;;;;;;;;;;;;;;;21.60;53.50;96013.44;10335765;28;2151;-56
2022/05/12 21:42:19;;;;;;;;;;;;;;;21.36;53.86;95979.06;10345208;28;1769;-61
2022/05/12 21:47:21;;;;;;;;;;;;;;;21.12;54.52;95983.41;10351752;28;1812;-59
2022/05/12 21:52:23;;;;;;;;;;;;;;;20.94;54.97;95970.78;10346137;28;1910;-62
2022/05/12 22:02:42;;;;;;;;;;;;;;;20.61;56.40;95993.28;10349961;28;1809;-60
2022/05/12 22:07:42;;;;;;;;;;;;;;;20.43;56.87;95995.72;10346701;28;1800;-55
2022/05/12 22:12:43;;;;;;;;;;;;;;;20.20;57.87;95994.44;10346044;28;1914;-56
2022/05/12 22:17:43;;;;;;;;;;;;;;;20.28;57.94;95996.53;10351349;28;1816;-56
2022/05/12 22:22:44;;;;;;;;;;;;;;;20.20;58.03;95991.78;10345951;28;1952;-56
2022/05/12 22:27:44;;;;;;;;;;;;;;;20.22;57.59;95982.59;10331732;28;1937;-58
2022/05/12 22:32:45;;;;;;;;;;;;;;;20.59;55.74;95990.16;10348538;28;1918;-56
2022/05/12 22:37:45;;;;;;;;;;;;;;;20.92;54.00;95992.16;10329805;28;1715;-60
2022/05/12 22:42:46;;;;;;;;;;;;;;;21.19;53.25;96009.44;10346007;28;1829;-60
2022/05/12 22:47:46;;;;;;;;;;;;;;;21.40;52.24;96009.09;10330180;28;1861;-59
2022/05/12 22:52:46;;;;;;;;;;;;;;;21.54;52.11;96002.16;10327944;28;1906;-57
2022/05/12 22:57:48;;;;;;;;;;;;;;;21.66;51.51;96013.16;10339829;28;1861;-58
2022/05/12 23:02:48;;;;;;;;;;;;;;;21.78;50.77;96012.81;10348287;28;2149;-59
2022/05/12 23:07:48;;;;;;;;;;;;;;;21.86;50.13;96010.41;10322215;28;1783;-61
2022/05/12 23:12:49;;;;;;;;;;;;;;;21.95;49.56;96015.88;10329243;28;1968;-59
2022/05/12 23:17:49;;;;;;;;;;;;;;;22.02;49.20;96007.66;10340905;28;2070;-57
2022/05/12 23:22:49;;;;;;;;;;;;;;;22.09;48.75;96002.84;10349593;28;1900;-59
2022/05/12 23:27:55;;;;;;;;;;;;;;;22.17;48.33;96010.19;10349839;28;1840;-58
2022/05/12 23:32:57;;;;;;;;;;;;;;;22.21;48.08;96004.06;10349468;28;1980;-60
2022/05/12 23:37:57;;;;;;;;;;;;;;;22.26;47.97;96008.50;10333340;28;1870;-60
2022/05/12 23:42:57;;;;;;;;;;;;;;;22.29;48.20;96016.66;10349066;28;1776;-61
2022/05/12 23:47:58;;;;;;;;;;;;;;;22.32;47.96;96008.19;10336744;28;1869;-56
2022/05/12 23:52:58;;;;;;;;;;;;;;;22.34;48.01;96003.41;10330876;28;1983;-60
2022/05/12 23:57:58;;;;;;;;;;;;;;;22.36;47.90;95995.22;10342071;28;1850;-60
